Moosomin, Canada
Current Conditions -  °F | °C
As of 4:00 AM on Sunday 21 Dec 2014 (Local Time) from CYBR Reporting Station
Haze Haze  
Wind Chill: 25°   Ceiling: 800
Heat Index: 25°   Visibility: 2mi
Dew Point: 25°   Wind: 3mph
Humidity: 100%   Direction: 100°E
Pressure: 29.65"   Gusts: NA
Location:  50.15°N, 101.67°W
Report Text: CYBR 211000Z 10003KT 2SM BR SCT002 OVC008 M04/M04 A2965 RMK ST3ST5 SLP065
Loading
Personal Weather Stations






























Interactive Weather Map New forecast layout! Learn more

10-Day Weather Forecast

Advertisements
Track Severe Weather on mobile